Back to top

Torrington, WY weather

Torrington Municipal Airport, Torrington, WY: 1/20/2020 05:53
Visibility10 statute milesclear sky
View 7-Day Forecast
Area Summary
Sky/CloudsSky Clear
Weather [last 24 hours]None
Pressure30.36 in.Hg (1028 hPa)
Dew Point7 °F (-13.9 °C)
Relative Humidity83.6 %
Temperature10.9 °F (-11.7 °C)blue thermometer
Wind Chill4.61 °F (-15.2 °C)
Reading TimeMinimum to Maximum Temperature
6-hr ending 1/20@04:5312.9 °F to 25 °F (-10.6 °C to -3.9 °C)
6-hr ending 1/19@22:5323 °F to 39.9 °F (-5 °C to 4.4 °C)
6-hr ending 1/19@16:5336 °F to 46 °F (2.2 °C to 7.8 °C)
6-hr ending 1/19@10:5310.9 °F to 36 °F (-11.7 °C to 2.2 °C)
24-hr ending 1/19@23:5310.9 °F to 46 °F (-11.7 °C to 7.8 °C)
Wind3.45 MPH (3 KT) green arrow pointing 90 degrees
Wind FromEast (100 Degrees)
Twilight Begins06:47Sunshine Yesterday
Sunrise07:18N/A
Sunset16:58
Twilight Ends17:29
METARKTOR 201253Z AUTO 10003KT 10SM CLR M12/M14 A3036 RMK AO2 SLP329 T11171139
Tags: